sensor_id;sensor_type;location;lat;lon;timestamp;pressure;altitude;pressure_sealevel;temperature;humidity
39681;BME280;26327;42.550;23.120;2023-04-19T07:57:57;92373.16;;;16.73;63.81
39681;BME280;26327;42.550;23.120;2023-04-19T08:00:22;92372.81;;;17.44;57.74
39681;BME280;26327;42.550;23.120;2023-04-19T08:02:48;92359.97;;;18.00;54.34
39681;BME280;26327;42.550;23.120;2023-04-19T08:05:15;92364.19;;;18.17;53.73
39681;BME280;26327;42.550;23.120;2023-04-19T08:07:44;92363.03;;;19.36;50.29
39681;BME280;26327;42.550;23.120;2023-04-19T08:10:10;92305.53;;;19.28;47.58
39681;BME280;26327;42.550;23.120;2023-04-19T08:12:36;92305.81;;;20.71;45.84
39681;BME280;26327;42.550;23.120;2023-04-19T08:15:06;92347.72;;;22.55;41.72
39681;BME280;26327;42.550;23.120;2023-04-19T08:17:33;92335.56;;;22.89;39.58
39681;BME280;26327;42.550;23.120;2023-04-19T08:19:59;92343.50;;;22.23;39.31
39681;BME280;26327;42.550;23.120;2023-04-19T08:22:24;92297.88;;;21.86;39.21
39681;BME280;26327;42.550;23.120;2023-04-19T08:24:50;92352.19;;;22.09;40.02
39681;BME280;26327;42.550;23.120;2023-04-19T08:27:16;92313.56;;;22.13;39.31
39681;BME280;26327;42.550;23.120;2023-04-19T08:29:42;92335.78;;;22.22;38.47
39681;BME280;26327;42.550;23.120;2023-04-19T08:32:07;92337.63;;;22.16;40.23
39681;BME280;26327;42.550;23.120;2023-04-19T08:34:36;92289.91;;;21.71;40.03
39681;BME280;26327;42.550;23.120;2023-04-19T08:37:02;92338.41;;;22.12;39.25
39681;BME280;26327;42.550;23.120;2023-04-19T08:39:31;92231.53;;;19.83;42.08
39681;BME280;26327;42.550;23.120;2023-04-19T08:42:02;92336.78;;;20.43;42.25
39681;BME280;26327;42.550;23.120;2023-04-19T08:44:30;92342.41;;;19.71;44.21
39681;BME280;26327;42.550;23.120;2023-04-19T08:46:58;92327.59;;;19.65;44.13
39681;BME280;26327;42.550;23.120;2023-04-19T08:49:24;92340.41;;;19.57;43.48
39681;BME280;26327;42.550;23.120;2023-04-19T08:51:50;92329.38;;;18.44;45.98
39681;BME280;26327;42.550;23.120;2023-04-19T08:54:17;92340.38;;;18.58;47.28
39681;BME280;26327;42.550;23.120;2023-04-19T08:56:42;92299.88;;;17.91;49.34
39681;BME280;26327;42.550;23.120;2023-04-19T08:59:08;92347.19;;;17.91;49.20
39681;BME280;26327;42.550;23.120;2023-04-19T09:01:34;92302.13;;;17.14;50.66
39681;BME280;26327;42.550;23.120;2023-04-19T09:03:59;92279.38;;;16.80;51.00
39681;BME280;26327;42.550;23.120;2023-04-19T09:06:24;92332.75;;;16.97;52.18
39681;BME280;26327;42.550;23.120;2023-04-19T09:08:51;92285.00;;;16.72;52.78
39681;BME280;26327;42.550;23.120;2023-04-19T09:11:35;92336.06;;;17.04;53.64
39681;BME280;26327;42.550;23.120;2023-04-19T09:14:09;92313.66;;;17.02;52.57
39681;BME280;26327;42.550;23.120;2023-04-19T09:16:34;92318.50;;;16.93;52.66
39681;BME280;26327;42.550;23.120;2023-04-19T09:19:01;92290.69;;;16.80;51.53
39681;BME280;26327;42.550;23.120;2023-04-19T09:21:31;92343.94;;;17.04;51.93
39681;BME280;26327;42.550;23.120;2023-04-19T09:23:57;92291.34;;;16.52;54.14
39681;BME280;26327;42.550;23.120;2023-04-19T09:26:23;92313.25;;;16.46;56.25
39681;BME280;26327;42.550;23.120;2023-04-19T09:31:22;92267.66;;;16.71;51.67
39681;BME280;26327;42.550;23.120;2023-04-19T09:33:47;92318.03;;;16.96;51.81
39681;BME280;26327;42.550;23.120;2023-04-19T09:36:26;92341.91;;;17.75;51.50
39681;BME280;26327;42.550;23.120;2023-04-19T09:38:51;92285.78;;;18.86;47.25
39681;BME280;26327;42.550;23.120;2023-04-19T09:41:17;92279.06;;;19.39;44.35
39681;BME280;26327;42.550;23.120;2023-04-19T09:43:43;92272.94;;;19.83;43.20
39681;BME280;26327;42.550;23.120;2023-04-19T09:46:29;92277.09;;;20.80;41.30
39681;BME280;26327;42.550;23.120;2023-04-19T09:48:54;92276.47;;;24.08;36.01
39681;BME280;26327;42.550;23.120;2023-04-19T09:51:21;92236.03;;;25.56;33.47
39681;BME280;26327;42.550;23.120;2023-04-19T09:53:47;92265.50;;;24.59;32.27
39681;BME280;26327;42.550;23.120;2023-04-19T09:56:13;92267.06;;;24.31;33.43
39681;BME280;26327;42.550;23.120;2023-04-19T09:58:38;92255.31;;;26.88;31.00
39681;BME280;26327;42.550;23.120;2023-04-19T10:01:04;92267.06;;;29.62;27.77
39681;BME280;26327;42.550;23.120;2023-04-19T10:03:35;92309.31;;;30.39;25.69
39681;BME280;26327;42.550;23.120;2023-04-19T10:06:01;92314.25;;;31.44;24.12
39681;BME280;26327;42.550;23.120;2023-04-19T10:08:27;92286.66;;;31.35;24.14
39681;BME280;26327;42.550;23.120;2023-04-19T10:10:53;92314.09;;;29.85;25.05
39681;BME280;26327;42.550;23.120;2023-04-19T10:13:20;92312.63;;;28.41;26.01
39681;BME280;26327;42.550;23.120;2023-04-19T10:15:47;92238.25;;;28.66;25.89
39681;BME280;26327;42.550;23.120;2023-04-19T10:18:13;92303.47;;;30.46;24.83
39681;BME280;26327;42.550;23.120;2023-04-19T10:23:17;92310.75;;;27.51;26.16
39681;BME280;26327;42.550;23.120;2023-04-19T10:25:45;92272.00;;;25.48;27.70
39681;BME280;26327;42.550;23.120;2023-04-19T10:28:11;92322.75;;;24.41;30.21
39681;BME280;26327;42.550;23.120;2023-04-19T10:30:54;92310.34;;;23.07;32.89
39681;BME280;26327;42.550;23.120;2023-04-19T10:33:28;92315.41;;;22.63;33.35
39681;BME280;26327;42.550;23.120;2023-04-19T10:35:57;92295.84;;;22.34;34.79
39681;BME280;26327;42.550;23.120;2023-04-19T10:41:01;92311.72;;;20.83;37.97
39681;BME280;26327;42.550;23.120;2023-04-19T10:43:34;92300.72;;;20.27;38.07
39681;BME280;26327;42.550;23.120;2023-04-19T10:46:07;92288.09;;;19.97;39.42
39681;BME280;26327;42.550;23.120;2023-04-19T10:48:34;92241.63;;;19.59;40.17
39681;BME280;26327;42.550;23.120;2023-04-19T10:53:54;92312.31;;;19.67;41.68
39681;BME280;26327;42.550;23.120;2023-04-19T10:56:22;92299.56;;;18.72;42.11
39681;BME280;26327;42.550;23.120;2023-04-19T11:01:47;92257.34;;;17.94;45.53
39681;BME280;26327;42.550;23.120;2023-04-19T11:04:56;92272.88;;;18.85;43.27
39681;BME280;26327;42.550;23.120;2023-04-19T11:07:08;92286.47;;;21.02;39.15
39681;BME280;26327;42.550;23.120;2023-04-19T11:09:38;92277.75;;;21.69;38.19
39681;BME280;26327;42.550;23.120;2023-04-19T11:12:12;92282.78;;;24.56;34.17
39681;BME280;26327;42.550;23.120;2023-04-19T11:14:45;92242.47;;;26.11;29.37
39681;BME280;26327;42.550;23.120;2023-04-19T11:17:21;92273.56;;;24.09;30.03
39681;BME280;26327;42.550;23.120;2023-04-19T11:19:54;92286.56;;;22.61;32.18
39681;BME280;26327;42.550;23.120;2023-04-19T11:24:56;92291.72;;;20.92;36.53
39681;BME280;26327;42.550;23.120;2023-04-19T11:27:21;92287.59;;;21.17;36.58
39681;BME280;26327;42.550;23.120;2023-04-19T11:29:47;92235.25;;;20.51;37.55
39681;BME280;26327;42.550;23.120;2023-04-19T11:32:12;92231.84;;;20.24;37.71
39681;BME280;26327;42.550;23.120;2023-04-19T11:34:39;92244.94;;;19.49;39.15
39681;BME280;26327;42.550;23.120;2023-04-19T11:37:04;92298.25;;;19.57;40.61
39681;BME280;26327;42.550;23.120;2023-04-19T11:39:30;92244.06;;;18.95;40.22
39681;BME280;26327;42.550;23.120;2023-04-19T11:41:55;92300.97;;;18.79;42.46
39681;BME280;26327;42.550;23.120;2023-04-19T11:44:22;92238.22;;;18.71;42.59
39681;BME280;26327;42.550;23.120;2023-04-19T11:47:03;92214.19;;;18.84;43.25
39681;BME280;26327;42.550;23.120;2023-04-19T11:49:31;92240.47;;;19.28;42.46
39681;BME280;26327;42.550;23.120;2023-04-19T11:51:58;92230.03;;;19.38;43.41
39681;BME280;26327;42.550;23.120;2023-04-19T11:54:24;92226.66;;;19.97;40.06
39681;BME280;26327;42.550;23.120;2023-04-19T11:57:05;92273.03;;;19.93;40.62
39681;BME280;26327;42.550;23.120;2023-04-19T11:59:32;92272.31;;;20.34;40.26
39681;BME280;26327;42.550;23.120;2023-04-19T12:02:05;92190.91;;;19.47;42.62
39681;BME280;26327;42.550;23.120;2023-04-19T12:04:31;92173.03;;;19.27;41.05
39681;BME280;26327;42.550;23.120;2023-04-19T12:06:58;92275.25;;;19.30;41.37
39681;BME280;26327;42.550;23.120;2023-04-19T12:09:24;92226.91;;;18.71;40.75
39681;BME280;26327;42.550;23.120;2023-04-19T12:11:49;92272.53;;;18.98;40.75
39681;BME280;26327;42.550;23.120;2023-04-19T12:14:17;92272.38;;;18.88;42.36
39681;BME280;26327;42.550;23.120;2023-04-19T12:16:44;92210.91;;;18.17;43.55
39681;BME280;26327;42.550;23.120;2023-04-19T12:19:11;92264.56;;;18.71;44.87
39681;BME280;26327;42.550;23.120;2023-04-19T12:21:41;92240.97;;;18.60;45.69
39681;BME280;26327;42.550;23.120;2023-04-19T12:24:06;92227.69;;;18.33;44.89
39681;BME280;26327;42.550;23.120;2023-04-19T12:26:32;92185.38;;;17.79;43.90
39681;BME280;26327;42.550;23.120;2023-04-19T12:28:59;92225.47;;;18.24;44.92
39681;BME280;26327;42.550;23.120;2023-04-19T12:31:26;92275.34;;;18.19;46.16
39681;BME280;26327;42.550;23.120;2023-04-19T12:33:51;92211.81;;;17.44;44.90
39681;BME280;26327;42.550;23.120;2023-04-19T12:36:17;92253.78;;;18.17;44.34
39681;BME280;26327;42.550;23.120;2023-04-19T12:38:42;92153.00;;;17.28;44.17
39681;BME280;26327;42.550;23.120;2023-04-19T12:41:08;92216.22;;;17.55;44.80
39681;BME280;26327;42.550;23.120;2023-04-19T12:43:33;92272.00;;;17.90;47.02
39681;BME280;26327;42.550;23.120;2023-04-19T12:45:59;92270.72;;;17.93;47.01
39681;BME280;26327;42.550;23.120;2023-04-19T12:48:25;92274.97;;;18.11;46.56
39681;BME280;26327;42.550;23.120;2023-04-19T12:50:52;92258.31;;;18.05;46.55
39681;BME280;26327;42.550;23.120;2023-04-19T12:53:17;92266.19;;;18.22;45.69
39681;BME280;26327;42.550;23.120;2023-04-19T12:55:43;92263.09;;;18.08;44.68
39681;BME280;26327;42.550;23.120;2023-04-19T12:58:18;92248.03;;;18.04;44.00
39681;BME280;26327;42.550;23.120;2023-04-19T13:00:45;92221.34;;;17.78;45.36
39681;BME280;26327;42.550;23.120;2023-04-19T13:03:11;92206.94;;;17.36;46.71
39681;BME280;26327;42.550;23.120;2023-04-19T13:05:37;92236.47;;;16.86;47.52
39681;BME280;26327;42.550;23.120;2023-04-19T13:08:02;92270.31;;;16.99;47.97
39681;BME280;26327;42.550;23.120;2023-04-19T13:10:27;92270.72;;;16.79;48.91
39681;BME280;26327;42.550;23.120;2023-04-19T13:12:53;92190.75;;;16.18;49.12
39681;BME280;26327;42.550;23.120;2023-04-19T13:15:18;92240.53;;;16.30;51.75
39681;BME280;26327;42.550;23.120;2023-04-19T13:17:44;92200.41;;;15.59;52.62
39681;BME280;26327;42.550;23.120;2023-04-19T13:20:09;92272.84;;;15.65;51.21
39681;BME280;26327;42.550;23.120;2023-04-19T13:22:35;92195.63;;;14.85;51.18
39681;BME280;26327;42.550;23.120;2023-04-19T13:25:01;92256.00;;;15.31;52.40
39681;BME280;26327;42.550;23.120;2023-04-19T13:27:26;92261.34;;;15.66;52.00
39681;BME280;26327;42.550;23.120;2023-04-19T13:29:54;92258.97;;;15.65;51.97
39681;BME280;26327;42.550;23.120;2023-04-19T13:32:20;92195.22;;;15.29;51.46
39681;BME280;26327;42.550;23.120;2023-04-19T13:34:45;92221.44;;;15.53;49.91
39681;BME280;26327;42.550;23.120;2023-04-19T13:37:10;92199.88;;;15.27;52.12
39681;BME280;26327;42.550;23.120;2023-04-19T13:39:36;92168.78;;;15.61;50.75
39681;BME280;26327;42.550;23.120;2023-04-19T13:42:01;92183.81;;;15.65;49.73
39681;BME280;26327;42.550;23.120;2023-04-19T13:44:27;92188.75;;;15.55;48.89
39681;BME280;26327;42.550;23.120;2023-04-19T13:46:53;92259.03;;;16.12;50.28
39681;BME280;26327;42.550;23.120;2023-04-19T13:49:18;92189.06;;;15.77;50.83
39681;BME280;26327;42.550;23.120;2023-04-19T13:51:44;92240.84;;;16.45;50.46
39681;BME280;26327;42.550;23.120;2023-04-19T13:54:10;92243.69;;;16.55;47.17
39681;BME280;26327;42.550;23.120;2023-04-19T13:56:35;92179.88;;;16.38;46.74
39681;BME280;26327;42.550;23.120;2023-04-19T13:59:01;92176.91;;;16.46;46.97
39681;BME280;26327;42.550;23.120;2023-04-19T14:01:26;92176.25;;;16.39;46.75
39681;BME280;26327;42.550;23.120;2023-04-19T14:03:52;92184.94;;;16.80;45.54
39681;BME280;26327;42.550;23.120;2023-04-19T14:06:17;92223.41;;;17.03;45.60
39681;BME280;26327;42.550;23.120;2023-04-19T14:08:43;92233.28;;;17.41;45.80
39681;BME280;26327;42.550;23.120;2023-04-19T14:11:08;92238.28;;;17.54;45.13
39681;BME280;26327;42.550;23.120;2023-04-19T14:13:34;92227.56;;;17.44;44.11
39681;BME280;26327;42.550;23.120;2023-04-19T14:15:59;92160.56;;;16.96;44.60
39681;BME280;26327;42.550;23.120;2023-04-19T14:18:25;92186.50;;;16.92;44.14
39681;BME280;26327;42.550;23.120;2023-04-19T14:20:50;92170.75;;;17.38;42.48
39681;BME280;26327;42.550;23.120;2023-04-19T14:23:15;92242.34;;;17.61;42.10
39681;BME280;26327;42.550;23.120;2023-04-19T14:25:41;92161.78;;;17.50;40.56
39681;BME280;26327;42.550;23.120;2023-04-19T14:28:06;92218.66;;;17.73;39.53
39681;BME280;26327;42.550;23.120;2023-04-19T14:30:32;92225.81;;;17.78;40.08
39681;BME280;26327;42.550;23.120;2023-04-19T14:32:57;92228.69;;;17.48;41.03
39681;BME280;26327;42.550;23.120;2023-04-19T14:35:23;92168.75;;;17.45;39.91
39681;BME280;26327;42.550;23.120;2023-04-19T14:37:48;92210.34;;;17.65;40.57
39681;BME280;26327;42.550;23.120;2023-04-19T14:40:13;92181.56;;;17.41;43.21
39681;BME280;26327;42.550;23.120;2023-04-19T14:42:40;92223.31;;;17.54;41.61
39681;BME280;26327;42.550;23.120;2023-04-19T14:45:06;92239.31;;;17.24;43.00
39681;BME280;26327;42.550;23.120;2023-04-19T14:47:31;92170.84;;;16.57;44.04
39681;BME280;26327;42.550;23.120;2023-04-19T14:49:57;92224.81;;;16.93;44.89
39681;BME280;26327;42.550;23.120;2023-04-19T14:52:22;92216.44;;;16.80;45.34
39681;BME280;26327;42.550;23.120;2023-04-19T14:54:48;92190.44;;;16.78;45.20
39681;BME280;26327;42.550;23.120;2023-04-19T14:57:14;92167.88;;;16.65;45.21
39681;BME280;26327;42.550;23.120;2023-04-19T14:59:39;92245.66;;;17.00;46.36
39681;BME280;26327;42.550;23.120;2023-04-19T15:02:04;92163.06;;;16.74;47.44
39681;BME280;26327;42.550;23.120;2023-04-19T15:04:33;92183.16;;;16.97;44.80
39681;BME280;26327;42.550;23.120;2023-04-19T15:06:59;92153.84;;;16.60;45.41
39681;BME280;26327;42.550;23.120;2023-04-19T15:09:24;92174.19;;;16.41;47.03
39681;BME280;26327;42.550;23.120;2023-04-19T15:11:50;92238.50;;;16.95;48.73
39681;BME280;26327;42.550;23.120;2023-04-19T15:14:15;92224.75;;;16.77;45.84
39681;BME280;26327;42.550;23.120;2023-04-19T15:16:41;92167.06;;;16.53;45.75
39681;BME280;26327;42.550;23.120;2023-04-19T15:19:07;92164.72;;;16.40;45.53
39681;BME280;26327;42.550;23.120;2023-04-19T15:21:32;92180.19;;;16.53;44.83
39681;BME280;26327;42.550;23.120;2023-04-19T15:23:58;92247.06;;;16.91;45.13
39681;BME280;26327;42.550;23.120;2023-04-19T15:26:23;92239.59;;;16.59;45.85
39681;BME280;26327;42.550;23.120;2023-04-19T15:28:49;92233.16;;;16.15;47.55
39681;BME280;26327;42.550;23.120;2023-04-19T15:31:14;92193.50;;;16.12;46.76
39681;BME280;26327;42.550;23.120;2023-04-19T15:33:40;92177.78;;;16.12;46.29
39681;BME280;26327;42.550;23.120;2023-04-19T15:36:06;92256.59;;;16.68;44.76
39681;BME280;26327;42.550;23.120;2023-04-19T15:38:32;92186.44;;;16.12;44.90
39681;BME280;26327;42.550;23.120;2023-04-19T15:40:58;92248.06;;;16.26;45.57
39681;BME280;26327;42.550;23.120;2023-04-19T15:43:24;92241.91;;;15.97;46.82
39681;BME280;26327;42.550;23.120;2023-04-19T15:45:50;92251.69;;;16.02;47.31
39681;BME280;26327;42.550;23.120;2023-04-19T15:48:16;92255.66;;;15.69;48.49
39681;BME280;26327;42.550;23.120;2023-04-19T15:50:41;92257.06;;;15.54;49.59
39681;BME280;26327;42.550;23.120;2023-04-19T15:53:07;92271.47;;;15.63;48.30
39681;BME280;26327;42.550;23.120;2023-04-19T15:55:33;92201.97;;;15.07;48.78
39681;BME280;26327;42.550;23.120;2023-04-19T15:57:59;92271.94;;;15.41;49.86
39681;BME280;26327;42.550;23.120;2023-04-19T16:00:25;92241.16;;;15.14;50.64
39681;BME280;26327;42.550;23.120;2023-04-19T16:02:52;92244.63;;;14.77;52.90
39681;BME280;26327;42.550;23.120;2023-04-19T16:05:17;92207.72;;;14.31;53.79
39681;BME280;26327;42.550;23.120;2023-04-19T16:07:43;92190.16;;;14.20;54.29
39681;BME280;26327;42.550;23.120;2023-04-19T16:10:10;92207.16;;;14.29;53.60
39681;BME280;26327;42.550;23.120;2023-04-19T16:12:36;92277.31;;;14.50;53.87
39681;BME280;26327;42.550;23.120;2023-04-19T16:15:02;92293.31;;;14.35;54.32
39681;BME280;26327;42.550;23.120;2023-04-19T16:17:29;92277.44;;;14.12;55.40
39681;BME280;26327;42.550;23.120;2023-04-19T16:19:54;92287.31;;;14.10;55.53
39681;BME280;26327;42.550;23.120;2023-04-19T16:22:20;92269.56;;;13.94;56.27
39681;BME280;26327;42.550;23.120;2023-04-19T16:24:45;92267.72;;;13.76;55.79
39681;BME280;26327;42.550;23.120;2023-04-19T16:27:11;92234.72;;;13.57;56.19
39681;BME280;26327;42.550;23.120;2023-04-19T16:29:36;92233.91;;;13.31;56.51
39681;BME280;26327;42.550;23.120;2023-04-19T16:32:03;92288.25;;;13.72;56.70
39681;BME280;26327;42.550;23.120;2023-04-19T16:34:28;92302.38;;;13.58;57.05
39681;BME280;26327;42.550;23.120;2023-04-19T16:36:54;92275.06;;;13.29;58.24
39681;BME280;26327;42.550;23.120;2023-04-19T16:39:20;92232.88;;;13.01;58.20
39681;BME280;26327;42.550;23.120;2023-04-19T16:41:45;92252.41;;;12.85;58.25
39681;BME280;26327;42.550;23.120;2023-04-19T16:44:10;92233.00;;;12.74;58.84
39681;BME280;26327;42.550;23.120;2023-04-19T16:46:36;92261.41;;;12.89;58.96
39681;BME280;26327;42.550;23.120;2023-04-19T16:49:01;92299.19;;;13.25;59.62
39681;BME280;26327;42.550;23.120;2023-04-19T16:51:27;92316.44;;;13.19;60.47
39681;BME280;26327;42.550;23.120;2023-04-19T16:53:53;92252.47;;;12.65;60.83
39681;BME280;26327;42.550;23.120;2023-04-19T16:56:18;92313.34;;;12.90;62.54
39681;BME280;26327;42.550;23.120;2023-04-19T16:58:44;92328.63;;;12.87;65.58
39681;BME280;26327;42.550;23.120;2023-04-19T17:01:10;92329.22;;;12.82;67.14
39681;BME280;26327;42.550;23.120;2023-04-19T17:03:36;92280.63;;;12.43;68.27
39681;BME280;26327;42.550;23.120;2023-04-19T17:06:01;92332.63;;;12.76;69.43
39681;BME280;26327;42.550;23.120;2023-04-19T17:08:27;92269.44;;;12.29;70.53
39681;BME280;26327;42.550;23.120;2023-04-19T17:10:52;92344.91;;;12.63;70.54
39681;BME280;26327;42.550;23.120;2023-04-19T17:13:17;92337.31;;;12.61;70.08
39681;BME280;26327;42.550;23.120;2023-04-19T17:15:44;92288.06;;;12.26;70.54
39681;BME280;26327;42.550;23.120;2023-04-19T17:18:09;92269.31;;;11.91;71.34
39681;BME280;26327;42.550;23.120;2023-04-19T17:20:35;92282.13;;;11.86;71.94
39681;BME280;26327;42.550;23.120;2023-04-19T17:23:00;92302.91;;;12.19;71.68
39681;BME280;26327;42.550;23.120;2023-04-19T17:25:25;92371.63;;;12.38;72.82
39681;BME280;26327;42.550;23.120;2023-04-19T17:27:51;92271.28;;;11.63;72.35
39681;BME280;26327;42.550;23.120;2023-04-19T17:30:16;92308.75;;;11.88;71.49
39681;BME280;26327;42.550;23.120;2023-04-19T17:32:42;92293.50;;;11.52;73.09
39681;BME280;26327;42.550;23.120;2023-04-19T17:35:07;92383.25;;;12.03;72.38
39681;BME280;26327;42.550;23.120;2023-04-19T17:37:33;92388.06;;;11.86;72.57
39681;BME280;26327;42.550;23.120;2023-04-19T17:39:58;92320.50;;;11.38;72.63
39681;BME280;26327;42.550;23.120;2023-04-19T17:42:24;92402.69;;;12.07;71.89
39681;BME280;26327;42.550;23.120;2023-04-19T17:44:50;92323.94;;;11.58;70.50
39681;BME280;26327;42.550;23.120;2023-04-19T17:47:18;92401.47;;;11.83;71.29
39681;BME280;26327;42.550;23.120;2023-04-19T17:49:44;92339.75;;;11.63;70.16
39681;BME280;26327;42.550;23.120;2023-04-19T17:52:10;92375.16;;;11.58;70.18
39681;BME280;26327;42.550;23.120;2023-04-19T17:54:36;92406.81;;;11.75;70.21
39681;BME280;26327;42.550;23.120;2023-04-19T17:57:01;92392.38;;;11.52;70.71
39681;BME280;26327;42.550;23.120;2023-04-19T17:59:27;92407.38;;;11.50;69.79
39681;BME280;26327;42.550;23.120;2023-04-19T18:01:54;92424.78;;;11.56;69.54
39681;BME280;26327;42.550;23.120;2023-04-19T18:04:20;92357.25;;;11.22;69.52
39681;BME280;26327;42.550;23.120;2023-04-19T18:06:46;92419.63;;;11.76;70.52
39681;BME280;26327;42.550;23.120;2023-04-19T18:09:11;92364.88;;;11.30;71.34
39681;BME280;26327;42.550;23.120;2023-04-19T18:11:37;92420.16;;;11.45;72.70
39681;BME280;26327;42.550;23.120;2023-04-19T18:14:03;92373.66;;;11.22;72.69
39681;BME280;26327;42.550;23.120;2023-04-19T18:16:29;92374.75;;;11.54;71.51
39681;BME280;26327;42.550;23.120;2023-04-19T18:18:54;92446.84;;;11.74;72.52
39681;BME280;26327;42.550;23.120;2023-04-19T18:21:20;92398.28;;;11.33;74.37
39681;BME280;26327;42.550;23.120;2023-04-19T18:23:45;92406.34;;;11.38;75.36
39681;BME280;26327;42.550;23.120;2023-04-19T18:26:11;92440.25;;;11.71;74.93
39681;BME280;26327;42.550;23.120;2023-04-19T18:28:37;92443.00;;;11.56;75.81
39681;BME280;26327;42.550;23.120;2023-04-19T18:31:04;92375.00;;;11.05;76.79
39681;BME280;26327;42.550;23.120;2023-04-19T18:33:29;92369.63;;;11.07;76.97
39681;BME280;26327;42.550;23.120;2023-04-19T18:35:55;92376.00;;;10.97;77.81
39681;BME280;26327;42.550;23.120;2023-04-19T18:38:21;92461.25;;;11.63;77.74
39681;BME280;26327;42.550;23.120;2023-04-19T18:40:47;92447.59;;;11.48;77.62
39681;BME280;26327;42.550;23.120;2023-04-19T18:43:12;92399.88;;;11.21;77.79
39681;BME280;26327;42.550;23.120;2023-04-19T18:45:38;92397.06;;;11.22;77.35
39681;BME280;26327;42.550;23.120;2023-04-19T18:48:03;92387.03;;;11.13;77.92
39681;BME280;26327;42.550;23.120;2023-04-19T18:50:29;92463.72;;;11.78;76.75
39681;BME280;26327;42.550;23.120;2023-04-19T18:52:55;92439.84;;;11.67;76.42
39681;BME280;26327;42.550;23.120;2023-04-19T18:55:20;92471.66;;;11.63;77.63
39681;BME280;26327;42.550;23.120;2023-04-19T18:57:46;92466.84;;;11.66;77.89
39681;BME280;26327;42.550;23.120;2023-04-19T19:00:12;92477.16;;;11.88;76.78
39681;BME280;26327;42.550;23.120;2023-04-19T19:02:38;92456.63;;;11.58;77.54
39681;BME280;26327;42.550;23.120;2023-04-19T19:05:04;92474.91;;;11.78;78.12
39681;BME280;26327;42.550;23.120;2023-04-19T19:07:31;92489.69;;;11.71;78.76
39681;BME280;26327;42.550;23.120;2023-04-19T19:09:57;92470.03;;;11.62;78.40
39681;BME280;26327;42.550;23.120;2023-04-19T19:12:24;92495.34;;;11.81;78.57
39681;BME280;26327;42.550;23.120;2023-04-19T19:14:50;92482.28;;;11.75;77.98
39681;BME280;26327;42.550;23.120;2023-04-19T19:17:15;92474.03;;;11.51;79.01
39681;BME280;26327;42.550;23.120;2023-04-19T19:19:40;92487.06;;;11.64;80.05
39681;BME280;26327;42.550;23.120;2023-04-19T19:22:06;92491.38;;;11.85;78.51
39681;BME280;26327;42.550;23.120;2023-04-19T19:24:31;92479.81;;;11.47;79.51
39681;BME280;26327;42.550;23.120;2023-04-19T19:26:57;92490.66;;;11.63;78.87
39681;BME280;26327;42.550;23.120;2023-04-19T19:29:23;92460.19;;;11.44;77.96
39681;BME280;26327;42.550;23.120;2023-04-19T19:31:49;92423.38;;;11.47;77.48
39681;BME280;26327;42.550;23.120;2023-04-19T19:34:16;92487.19;;;11.91;76.78
39681;BME280;26327;42.550;23.120;2023-04-19T19:36:42;92493.28;;;11.70;79.08
39681;BME280;26327;42.550;23.120;2023-04-19T19:39:08;92493.69;;;11.67;80.53
39681;BME280;26327;42.550;23.120;2023-04-19T19:41:35;92501.91;;;11.77;80.29
39681;BME280;26327;42.550;23.120;2023-04-19T19:44:01;92421.63;;;11.13;79.82
39681;BME280;26327;42.550;23.120;2023-04-19T19:46:26;92478.72;;;11.34;80.65
39681;BME280;26327;42.550;23.120;2023-04-19T19:48:51;92417.00;;;11.02;80.81
39681;BME280;26327;42.550;23.120;2023-04-19T19:51:17;92501.44;;;11.54;80.29
39681;BME280;26327;42.550;23.120;2023-04-19T19:53:42;92369.81;;;10.64;81.33
39681;BME280;26327;42.550;23.120;2023-04-19T19:56:08;92479.78;;;11.40;82.09
39681;BME280;26327;42.550;23.120;2023-04-19T19:58:33;92422.38;;;11.00;82.99
39681;BME280;26327;42.550;23.120;2023-04-19T20:00:59;92432.75;;;10.94;83.96
39681;BME280;26327;42.550;23.120;2023-04-19T20:03:24;92430.69;;;10.83;83.08
39681;BME280;26327;42.550;23.120;2023-04-19T20:05:51;92443.53;;;10.91;83.35
39681;BME280;26327;42.550;23.120;2023-04-19T20:08:17;92434.13;;;10.90;84.47
39681;BME280;26327;42.550;23.120;2023-04-19T20:10:42;92503.28;;;11.19;85.26
39681;BME280;26327;42.550;23.120;2023-04-19T20:13:08;92484.03;;;11.13;84.46
39681;BME280;26327;42.550;23.120;2023-04-19T20:15:35;92467.59;;;11.06;84.22
39681;BME280;26327;42.550;23.120;2023-04-19T20:18:01;92485.00;;;11.06;84.54
39681;BME280;26327;42.550;23.120;2023-04-19T20:20:27;92488.63;;;11.11;84.68
39681;BME280;26327;42.550;23.120;2023-04-19T20:22:53;92425.16;;;10.92;83.34
39681;BME280;26327;42.550;23.120;2023-04-19T20:25:18;92415.34;;;10.53;83.60
39681;BME280;26327;42.550;23.120;2023-04-19T20:27:43;92489.47;;;11.18;83.51
39681;BME280;26327;42.550;23.120;2023-04-19T20:30:09;92464.59;;;11.02;82.85
39681;BME280;26327;42.550;23.120;2023-04-19T20:32:35;92473.25;;;11.16;83.58
39681;BME280;26327;42.550;23.120;2023-04-19T20:35:02;92491.91;;;11.26;82.96
39681;BME280;26327;42.550;23.120;2023-04-19T20:37:33;92491.50;;;11.29;82.87
39681;BME280;26327;42.550;23.120;2023-04-19T20:40:02;92469.47;;;11.19;82.73
39681;BME280;26327;42.550;23.120;2023-04-19T20:42:30;92497.06;;;11.20;83.08
39681;BME280;26327;42.550;23.120;2023-04-19T20:44:55;92487.00;;;11.03;83.67
39681;BME280;26327;42.550;23.120;2023-04-19T20:47:20;92422.19;;;10.67;84.40
39681;BME280;26327;42.550;23.120;2023-04-19T20:49:46;92475.03;;;10.81;85.20
39681;BME280;26327;42.550;23.120;2023-04-19T20:52:11;92445.59;;;10.67;85.80
39681;BME280;26327;42.550;23.120;2023-04-19T20:54:36;92475.84;;;10.82;85.94
39681;BME280;26327;42.550;23.120;2023-04-19T20:57:03;92478.69;;;10.87;86.80
39681;BME280;26327;42.550;23.120;2023-04-19T20:59:29;92445.56;;;10.61;88.10